createdAt,value
2022-08-10T00:01:53.154Z,2.30
2022-08-10T00:04:22.098Z,2.75
2022-08-10T00:06:53.311Z,2.63
2022-08-10T00:09:20.288Z,2.15
2022-08-10T00:11:46.862Z,3.20
2022-08-10T00:14:13.302Z,3.17
2022-08-10T00:16:39.726Z,2.60
2022-08-10T00:19:06.157Z,2.55
2022-08-10T00:21:32.576Z,2.85
2022-08-10T00:23:59.016Z,3.08
2022-08-10T00:26:25.413Z,2.42
2022-08-10T00:28:52.517Z,2.60
2022-08-10T00:31:18.926Z,3.20
2022-08-10T00:33:45.376Z,2.65
2022-08-10T00:36:11.945Z,3.05
2022-08-10T00:38:38.356Z,2.85
2022-08-10T00:41:04.883Z,3.17
2022-08-10T00:43:31.376Z,2.78
2022-08-10T00:45:59.099Z,3.22
2022-08-10T00:48:28.315Z,2.95
2022-08-10T00:50:54.992Z,3.17
2022-08-10T00:53:21.564Z,3.20
2022-08-10T00:57:16.969Z,2.92
2022-08-10T00:58:35.354Z,2.92
2022-08-10T01:01:01.847Z,2.78
2022-08-10T01:04:57.972Z,2.97
2022-08-10T01:06:36.736Z,2.95
2022-08-10T01:09:24.646Z,3.38
2022-08-10T01:12:37.894Z,3.47
2022-08-10T01:15:11.829Z,3.33
2022-08-10T01:18:04.104Z,3.05
2022-08-10T01:20:38.056Z,3.40
2022-08-10T01:23:22.720Z,3.10
2022-08-10T01:26:11.050Z,3.28
2022-08-10T01:29:13.713Z,3.75
2022-08-10T01:31:45.821Z,3.13
2022-08-10T01:34:18.206Z,3.90
2022-08-10T01:37:08.596Z,3.72
2022-08-10T01:39:42.367Z,3.20
2022-08-10T01:42:11.924Z,3.65
2022-08-10T01:44:41.136Z,3.60
2022-08-10T01:47:31.866Z,3.28
2022-08-10T01:50:10.479Z,4.20
2022-08-10T01:52:37.815Z,3.70
2022-08-10T01:55:05.146Z,3.13
2022-08-10T01:57:32.675Z,3.55
2022-08-10T02:00:02.729Z,3.30
2022-08-10T02:02:30.302Z,3.40
2022-08-10T02:04:57.822Z,3.42
2022-08-10T02:07:27.358Z,3.20
2022-08-10T02:09:55.675Z,3.58
2022-08-10T02:12:30.542Z,3.95
2022-08-10T02:14:59.858Z,3.78
2022-08-10T02:18:00.527Z,3.50
2022-08-10T02:20:20.813Z,3.22
2022-08-10T02:22:59.703Z,3.58
2022-08-10T02:25:41.505Z,4.40
2022-08-10T02:28:12.000Z,4.05
2022-08-10T02:30:55.656Z,3.83
2022-08-10T02:33:26.425Z,3.70
2022-08-10T02:35:55.823Z,4.13
2022-08-10T02:38:58.064Z,4.25
2022-08-10T02:45:12.914Z,4.45
2022-08-10T02:45:21.244Z,4.03
2022-08-10T02:47:22.510Z,4.10
2022-08-10T02:49:53.753Z,4.13
2022-08-10T02:52:29.401Z,4.78
2022-08-10T02:55:06.098Z,4.28
2022-08-10T02:58:15.256Z,4.28
2022-08-10T03:00:41.397Z,4.40
2022-08-10T03:03:11.240Z,4.28
2022-08-10T03:05:37.856Z,4.55
2022-08-10T03:08:05.903Z,4.57
2022-08-10T03:10:39.439Z,4.55
2022-08-10T03:13:07.763Z,4.50
2022-08-10T03:15:36.488Z,4.65
2022-08-10T03:18:03.356Z,4.60
2022-08-10T03:20:38.949Z,5.10
2022-08-10T03:23:11.213Z,5.50
2022-08-10T03:25:37.952Z,4.43
2022-08-10T03:28:04.931Z,4.97
2022-08-10T03:30:33.641Z,5.43
2022-08-10T03:33:03.265Z,5.63
2022-08-10T03:35:29.787Z,5.40
2022-08-10T03:37:59.833Z,5.72
2022-08-10T03:40:45.325Z,5.85
2022-08-10T03:43:22.920Z,5.70
2022-08-10T03:45:55.882Z,6.05
2022-08-10T03:48:32.051Z,6.10
2022-08-10T03:51:06.737Z,5.72
2022-08-10T03:54:05.387Z,6.03
2022-08-10T03:56:28.673Z,6.07
2022-08-10T04:02:45.459Z,5.25
2022-08-10T04:04:10.895Z,5.95
2022-08-10T04:06:40.113Z,6.15
2022-08-10T04:09:06.909Z,5.82
2022-08-10T04:11:33.425Z,6.97
2022-08-10T04:13:59.853Z,5.82
2022-08-10T04:16:26.331Z,6.95
2022-08-10T04:18:52.752Z,6.60
2022-08-10T04:21:22.320Z,7.03
2022-08-10T04:23:53.223Z,6.35
2022-08-10T04:26:20.454Z,7.15
2022-08-10T04:28:48.913Z,7.78
2022-08-10T04:31:16.555Z,7.72
2022-08-10T04:33:47.395Z,7.32
2022-08-10T04:36:15.579Z,6.80
2022-08-10T04:38:42.719Z,6.95
2022-08-10T04:41:09.198Z,7.30
2022-08-10T04:43:36.006Z,7.68
2022-08-10T04:46:02.444Z,7.65
2022-08-10T04:48:42.365Z,6.88
2022-08-10T04:51:18.940Z,8.57
2022-08-10T04:54:04.482Z,7.25
2022-08-10T04:56:34.347Z,7.88
2022-08-10T04:59:00.873Z,7.45
2022-08-10T05:01:37.637Z,7.90
2022-08-10T05:04:33.826Z,6.88
2022-08-10T05:07:00.746Z,8.00
2022-08-10T05:09:27.232Z,7.75
2022-08-10T05:11:53.654Z,7.95
2022-08-10T05:14:20.080Z,8.43
2022-08-10T05:16:46.503Z,8.30
2022-08-10T05:19:12.926Z,7.80
2022-08-10T05:21:53.796Z,7.72
2022-08-10T05:24:25.765Z,7.75
2022-08-10T05:27:00.705Z,7.70
2022-08-10T05:29:36.213Z,8.07
2022-08-10T05:32:02.717Z,8.25
2022-08-10T05:34:30.169Z,8.43
2022-08-10T05:36:58.330Z,8.15
2022-08-10T05:39:28.816Z,8.02
2022-08-10T05:42:01.069Z,7.90
2022-08-10T05:44:28.893Z,8.10
2022-08-10T05:46:55.331Z,8.52
2022-08-10T05:49:21.748Z,7.95
2022-08-10T05:51:48.210Z,8.55
2022-08-10T05:54:17.472Z,7.82
2022-08-10T05:56:55.550Z,7.70
2022-08-10T06:00:34.973Z,7.55
2022-08-10T06:02:42.710Z,7.88
2022-08-10T06:05:12.025Z,7.88
2022-08-10T06:07:49.271Z,8.13
2022-08-10T06:10:31.202Z,8.23
2022-08-10T06:13:26.882Z,7.93
2022-08-10T06:16:01.077Z,9.05
2022-08-10T06:18:27.888Z,8.95
2022-08-10T06:20:54.819Z,8.20
2022-08-10T06:23:21.397Z,7.70
2022-08-10T06:26:09.588Z,8.90
2022-08-10T06:28:40.688Z,7.78
2022-08-10T06:31:07.916Z,8.00
2022-08-10T06:33:35.824Z,7.85
2022-08-10T06:36:03.373Z,8.98
2022-08-10T06:38:32.330Z,7.72
2022-08-10T06:41:01.594Z,7.38
2022-08-10T06:43:29.113Z,7.70
2022-08-10T06:46:08.943Z,8.20
2022-08-10T06:48:50.849Z,8.60
2022-08-10T06:53:53.573Z,7.53
2022-08-10T06:56:36.281Z,7.13
2022-08-10T06:59:27.119Z,7.60
2022-08-10T07:01:58.902Z,8.05
2022-08-10T07:04:34.999Z,7.82
2022-08-10T07:07:04.992Z,8.07
2022-08-10T07:09:33.402Z,7.43
2022-08-10T07:12:07.796Z,6.85
2022-08-10T07:14:40.987Z,7.50
2022-08-10T07:17:15.852Z,6.95
2022-08-10T07:19:49.583Z,8.02
2022-08-10T07:23:27.018Z,7.10
2022-08-10T07:25:06.877Z,6.78
2022-08-10T07:27:39.131Z,7.90
2022-08-10T07:30:20.903Z,7.18
2022-08-10T07:32:49.320Z,7.78
2022-08-10T07:35:17.299Z,7.38
2022-08-10T07:37:47.945Z,7.25
2022-08-10T07:40:15.514Z,7.30
2022-08-10T07:42:46.028Z,6.95
2022-08-10T07:45:12.829Z,7.25
2022-08-10T07:48:07.204Z,6.75
2022-08-10T07:50:36.730Z,7.53
2022-08-10T07:53:04.485Z,6.47
2022-08-10T07:56:04.785Z,6.97
2022-08-10T08:00:50.618Z,5.80
2022-08-10T08:03:21.266Z,7.07
2022-08-10T08:06:02.714Z,5.97
2022-08-10T08:08:30.868Z,6.82
2022-08-10T08:10:58.536Z,6.63
2022-08-10T08:13:25.120Z,6.47
2022-08-10T08:16:18.745Z,6.60
2022-08-10T08:24:06.557Z,6.35
2022-08-10T08:24:21.683Z,5.43
2022-08-10T08:26:52.214Z,5.53
2022-08-10T08:31:54.291Z,6.07
2022-08-10T08:34:28.453Z,6.32
2022-08-10T08:36:59.416Z,5.85
2022-08-10T08:39:26.465Z,6.25
2022-08-10T08:42:04.122Z,5.28
2022-08-10T08:44:52.400Z,6.22
2022-08-10T08:48:04.020Z,5.68
2022-08-10T08:50:56.697Z,5.28
2022-08-10T08:54:02.719Z,5.05
2022-08-10T08:59:11.540Z,4.88
2022-08-10T09:01:50.131Z,4.20
2022-08-10T09:05:19.341Z,5.15
2022-08-10T09:08:21.254Z,5.50
2022-08-10T09:10:47.577Z,5.20
2022-08-10T09:13:26.911Z,4.47
2022-08-10T09:16:03.439Z,4.10
2022-08-10T09:18:44.872Z,4.25
2022-08-10T09:21:13.923Z,4.45
2022-08-10T09:24:05.178Z,4.78
2022-08-10T09:26:45.960Z,4.47
2022-08-10T09:29:16.597Z,4.20
2022-08-10T09:31:55.504Z,3.80
2022-08-10T09:36:24.760Z,3.47
2022-08-10T09:38:13.480Z,3.97
2022-08-10T09:41:13.900Z,3.03
2022-08-10T09:43:52.718Z,3.08
2022-08-10T09:46:43.988Z,3.13
2022-08-10T09:49:30.667Z,2.95
2022-08-10T09:52:21.905Z,2.83
2022-08-10T09:54:58.084Z,3.05
2022-08-10T09:57:44.663Z,3.03
2022-08-10T10:00:16.293Z,2.50
2022-08-10T10:03:04.130Z,2.72
2022-08-10T10:05:30.593Z,2.30
2022-08-10T10:08:09.733Z,2.38
2022-08-10T10:10:48.000Z,2.05
2022-08-10T10:13:52.691Z,2.13
2022-08-10T10:16:39.506Z,2.10
2022-08-10T10:19:27.876Z,2.00
2022-08-10T10:21:58.008Z,2.13
2022-08-10T10:24:32.958Z,2.15
2022-08-10T10:27:25.664Z,2.20
2022-08-10T10:30:05.051Z,2.28
2022-08-10T10:32:38.616Z,2.10
2022-08-10T10:35:08.014Z,2.10
2022-08-10T10:38:00.779Z,2.22
2022-08-10T10:40:24.390Z,2.15
2022-08-10T10:43:04.216Z,2.30
2022-08-10T10:45:50.567Z,2.15
2022-08-10T10:48:29.277Z,2.20
2022-08-10T10:51:16.822Z,1.88
2022-08-10T10:54:08.524Z,2.08
2022-08-10T10:56:53.698Z,2.05
2022-08-10T10:59:53.924Z,1.92
2022-08-10T11:02:23.728Z,2.10
2022-08-10T11:04:59.014Z,2.17
2022-08-10T11:07:39.556Z,2.10
2022-08-10T11:10:31.804Z,2.30
2022-08-10T11:14:26.092Z,2.03
2022-08-10T11:17:10.200Z,2.28
2022-08-10T11:20:02.623Z,2.22
2022-08-10T11:22:37.183Z,2.30
2022-08-10T11:25:09.138Z,1.90
2022-08-10T11:28:17.237Z,2.00
2022-08-10T11:30:48.106Z,1.88
2022-08-10T11:33:30.974Z,2.17
2022-08-10T11:36:24.373Z,2.25
2022-08-10T11:39:28.347Z,2.10
2022-08-10T11:42:16.509Z,2.30
2022-08-10T11:44:54.476Z,2.08
2022-08-10T11:47:23.689Z,1.85
2022-08-10T11:52:34.988Z,2.35
2022-08-10T11:55:10.879Z,2.10
2022-08-10T11:57:54.390Z,1.65
2022-08-10T12:00:21.968Z,1.90
2022-08-10T12:02:53.716Z,1.83
2022-08-10T12:05:51.620Z,2.10
2022-08-10T12:10:02.460Z,1.98
2022-08-10T12:11:05.544Z,2.30
2022-08-10T12:13:40.090Z,2.13
2022-08-10T12:16:09.068Z,1.70
2022-08-10T12:18:58.705Z,1.90
2022-08-10T12:21:28.180Z,2.00
2022-08-10T12:24:21.777Z,2.15
2022-08-10T12:26:59.368Z,1.80
2022-08-10T12:30:04.588Z,1.92
2022-08-10T12:32:42.696Z,1.98
2022-08-10T12:35:26.769Z,1.88
2022-08-10T12:38:16.732Z,1.88
2022-08-10T12:40:47.388Z,2.10
2022-08-10T12:44:07.586Z,1.98
2022-08-10T12:46:39.785Z,1.60
2022-08-10T12:49:11.980Z,2.10
2022-08-10T12:51:46.911Z,2.00
2022-08-10T12:54:31.866Z,2.20
2022-08-10T12:57:03.397Z,1.75
2022-08-10T12:59:30.767Z,1.92
2022-08-10T13:02:06.822Z,1.83
2022-08-10T13:04:38.072Z,1.60
2022-08-10T13:07:05.533Z,2.00
2022-08-10T13:09:32.655Z,1.60
2022-08-10T13:12:34.922Z,1.70
2022-08-10T13:15:45.648Z,2.03
2022-08-10T13:18:18.589Z,1.73
2022-08-10T13:20:50.791Z,1.90
2022-08-10T13:23:21.490Z,1.77
2022-08-10T13:25:51.289Z,1.92
2022-08-10T13:28:37.264Z,1.80
2022-08-10T13:31:16.780Z,2.10
2022-08-10T13:34:38.814Z,2.00
2022-08-10T13:36:42.158Z,2.03
2022-08-10T13:39:10.268Z,2.08
2022-08-10T13:41:42.733Z,2.05
2022-08-10T13:44:11.682Z,1.70
2022-08-10T13:46:41.965Z,1.73
2022-08-10T13:49:09.720Z,1.90
2022-08-10T13:51:56.850Z,1.98
2022-08-10T13:54:27.955Z,2.05
2022-08-10T13:56:54.982Z,1.92
2022-08-10T13:59:25.601Z,1.80
2022-08-10T14:02:14.343Z,1.80
2022-08-10T14:07:11.638Z,1.65
2022-08-10T14:09:38.288Z,1.95
2022-08-10T14:12:05.485Z,1.80
2022-08-10T14:14:32.423Z,2.00
2022-08-10T14:17:00.111Z,1.58
2022-08-10T14:19:28.240Z,1.90
2022-08-10T14:21:55.942Z,1.73
2022-08-10T14:24:25.084Z,1.90
2022-08-10T14:26:58.422Z,2.00
2022-08-10T14:29:25.353Z,1.63
2022-08-10T14:32:01.223Z,2.08
2022-08-10T14:34:59.489Z,1.75
2022-08-10T14:37:23.848Z,1.88
2022-08-10T14:40:00.667Z,2.00
2022-08-10T14:42:35.891Z,1.90
2022-08-10T14:45:07.564Z,2.20
2022-08-10T14:47:52.782Z,1.70
2022-08-10T14:50:31.691Z,2.00
2022-08-10T14:53:04.752Z,1.88
2022-08-10T14:55:58.996Z,1.80
2022-08-10T14:58:36.004Z,1.58
2022-08-10T15:03:58.654Z,2.22
2022-08-10T15:06:30.888Z,2.30
2022-08-10T15:09:12.419Z,2.40
2022-08-10T15:12:14.447Z,2.33
2022-08-10T15:14:43.138Z,2.05
2022-08-10T15:17:13.378Z,1.92
2022-08-10T15:20:03.168Z,1.70
2022-08-10T15:22:37.699Z,2.10
2022-08-10T15:25:17.966Z,2.08
2022-08-10T15:27:53.728Z,2.03
2022-08-10T15:30:29.585Z,1.67
2022-08-10T15:33:57.709Z,1.60
2022-08-10T15:36:29.705Z,1.92
2022-08-10T15:39:17.308Z,1.90
2022-08-10T15:42:04.880Z,1.92
2022-08-10T15:44:37.973Z,2.00
2022-08-10T15:47:08.197Z,1.90
2022-08-10T15:49:40.869Z,1.88
2022-08-10T15:52:39.687Z,1.80
2022-08-10T15:55:41.143Z,2.30
2022-08-10T15:58:05.867Z,1.73
2022-08-10T16:00:33.957Z,1.80
2022-08-10T16:03:08.465Z,1.98
2022-08-10T16:06:01.412Z,1.70
2022-08-10T16:08:56.421Z,1.88
2022-08-10T16:11:37.453Z,1.73
2022-08-10T16:14:13.060Z,1.50
2022-08-10T16:16:40.277Z,1.88
2022-08-10T16:19:22.364Z,2.00
2022-08-10T16:21:55.798Z,2.20
2022-08-10T16:24:22.315Z,1.70
2022-08-10T16:26:52.543Z,1.85
2022-08-10T16:29:24.943Z,1.80
2022-08-10T16:31:56.595Z,1.90
2022-08-10T16:34:24.406Z,1.60
2022-08-10T16:36:53.566Z,1.85
2022-08-10T16:39:57.201Z,1.80
2022-08-10T16:42:17.491Z,1.70
2022-08-10T16:45:07.549Z,2.03
2022-08-10T16:47:37.631Z,1.80
2022-08-10T16:50:07.230Z,1.70
2022-08-10T16:52:34.512Z,1.73
2022-08-10T16:55:24.012Z,1.80
2022-08-10T16:57:53.037Z,1.98
2022-08-10T17:00:22.488Z,1.70
2022-08-10T17:02:52.723Z,1.80
2022-08-10T17:06:09.579Z,1.92
2022-08-10T17:08:09.608Z,1.70
2022-08-10T17:10:36.837Z,1.70
2022-08-10T17:13:06.142Z,1.70
2022-08-10T17:15:33.052Z,1.92
2022-08-10T17:18:01.485Z,1.60
2022-08-10T17:20:32.824Z,1.80
2022-08-10T17:23:06.475Z,1.90
2022-08-10T17:25:48.357Z,1.70
2022-08-10T17:28:34.761Z,1.98
2022-08-10T17:31:23.904Z,1.92
2022-08-10T17:34:18.809Z,1.95
2022-08-10T17:36:49.803Z,1.80
2022-08-10T17:39:20.874Z,2.15
2022-08-10T17:41:51.357Z,1.80
2022-08-10T17:44:18.550Z,1.60
2022-08-10T17:46:45.620Z,2.00
2022-08-10T17:49:15.781Z,1.77
2022-08-10T17:51:47.698Z,1.50
2022-08-10T17:54:27.307Z,1.92
2022-08-10T17:56:58.654Z,1.88
2022-08-10T17:59:26.597Z,2.00
2022-08-10T18:02:08.013Z,1.98
2022-08-10T18:07:10.568Z,1.92
2022-08-10T18:09:40.140Z,2.10
2022-08-10T18:12:12.479Z,1.98
2022-08-10T18:14:45.529Z,1.90
2022-08-10T18:17:17.117Z,1.98
2022-08-10T18:19:46.578Z,2.55
2022-08-10T18:22:15.993Z,1.88
2022-08-10T18:24:43.262Z,2.13
2022-08-10T18:27:10.129Z,2.10
2022-08-10T18:29:40.846Z,1.90
2022-08-10T18:32:07.909Z,1.95
2022-08-10T18:34:35.242Z,2.10
2022-08-10T18:37:05.068Z,2.00
2022-08-10T18:39:35.410Z,2.38
2022-08-10T18:42:25.753Z,1.90
2022-08-10T18:45:01.626Z,2.28
2022-08-10T18:47:33.928Z,1.80
2022-08-10T18:50:06.693Z,1.90
2022-08-10T18:52:34.615Z,2.25
2022-08-10T18:55:14.166Z,2.22
2022-08-10T18:57:55.445Z,2.20
2022-08-10T19:00:22.825Z,2.22
2022-08-10T19:03:04.500Z,2.30
2022-08-10T19:06:08.881Z,2.17
2022-08-10T19:09:45.836Z,2.20
2022-08-10T19:12:45.072Z,2.10
2022-08-10T19:15:32.355Z,2.17
2022-08-10T19:18:20.728Z,2.10
2022-08-10T19:21:05.915Z,2.30
2022-08-10T19:23:43.859Z,2.30
2022-08-10T19:26:44.910Z,2.50
2022-08-10T19:30:07.852Z,2.20
2022-08-10T19:32:44.953Z,2.17
2022-08-10T19:35:24.969Z,2.42
2022-08-10T19:38:16.764Z,2.42
2022-08-10T19:40:55.159Z,2.40
2022-08-10T19:44:01.222Z,2.20
2022-08-10T19:46:44.101Z,2.40
2022-08-10T19:49:39.708Z,2.72
2022-08-10T19:52:27.181Z,2.45
2022-08-10T19:55:20.850Z,2.55
2022-08-10T19:58:07.810Z,2.03
2022-08-10T20:00:59.820Z,2.30
2022-08-10T20:03:42.063Z,2.30
2022-08-10T20:06:20.636Z,2.47
2022-08-10T20:09:03.662Z,2.45
2022-08-10T20:11:48.989Z,2.30
2022-08-10T20:14:48.293Z,2.45
2022-08-10T20:17:52.808Z,2.63
2022-08-10T20:20:30.472Z,3.10
2022-08-10T20:23:21.199Z,3.15
2022-08-10T20:26:01.320Z,4.05
2022-08-10T20:28:38.292Z,4.00
2022-08-10T20:31:17.686Z,3.33
2022-08-10T20:34:01.462Z,3.38
2022-08-10T20:36:34.007Z,3.80
2022-08-10T20:39:21.076Z,3.40
2022-08-10T20:42:13.590Z,3.58
2022-08-10T20:45:06.878Z,3.40
2022-08-10T20:47:53.855Z,2.90
2022-08-10T20:53:02.157Z,3.65
2022-08-10T20:55:47.779Z,3.20
2022-08-10T20:59:08.858Z,3.15
2022-08-10T21:02:07.270Z,3.28
2022-08-10T21:04:47.704Z,2.88
2022-08-10T21:08:00.356Z,3.15
2022-08-10T21:10:52.257Z,2.70
2022-08-10T21:13:24.677Z,2.83
2022-08-10T21:16:21.305Z,3.10
2022-08-10T21:19:20.758Z,3.17
2022-08-10T21:22:04.274Z,3.00
2022-08-10T21:24:41.724Z,2.70
2022-08-10T21:27:22.572Z,3.58
2022-08-10T21:30:08.949Z,2.72
2022-08-10T21:33:03.004Z,3.03
2022-08-10T21:35:42.751Z,3.15
2022-08-10T21:38:19.448Z,2.72
2022-08-10T21:41:17.098Z,2.85
2022-08-10T21:44:08.141Z,3.00
2022-08-10T21:47:07.562Z,3.20
2022-08-10T21:49:57.308Z,3.30
2022-08-10T21:53:43.537Z,3.13
2022-08-10T21:56:39.941Z,3.22
2022-08-10T21:59:47.924Z,3.10
2022-08-10T22:05:20.384Z,3.42
2022-08-10T22:08:12.175Z,2.83
2022-08-10T22:11:08.129Z,3.00
2022-08-10T22:13:58.563Z,3.50
2022-08-10T22:17:07.491Z,3.45
2022-08-10T22:20:18.881Z,3.65
2022-08-10T22:23:38.319Z,3.30
2022-08-10T22:27:00.584Z,3.20
2022-08-10T22:30:00.974Z,3.30
2022-08-10T22:32:56.198Z,3.40
2022-08-10T22:35:41.114Z,3.83
2022-08-10T22:39:04.075Z,3.60
2022-08-10T22:42:11.266Z,3.72
2022-08-10T22:45:03.911Z,3.70
2022-08-10T22:47:51.113Z,3.95
2022-08-10T22:50:20.921Z,3.80
2022-08-10T22:53:01.609Z,4.28
2022-08-10T22:55:52.450Z,4.57
2022-08-10T22:58:48.071Z,3.70
2022-08-10T23:01:38.843Z,3.80
2022-08-10T23:04:44.940Z,4.05
2022-08-10T23:07:20.808Z,4.13
2022-08-10T23:10:06.782Z,4.20
2022-08-10T23:12:39.645Z,4.18
2022-08-10T23:15:26.889Z,4.03
2022-08-10T23:18:13.308Z,4.18
2022-08-10T23:20:40.782Z,3.95
2022-08-10T23:23:10.262Z,4.40
2022-08-10T23:25:57.416Z,4.68
2022-08-10T23:31:12.389Z,4.03
2022-08-10T23:33:39.571Z,4.20
2022-08-10T23:36:32.399Z,4.18
2022-08-10T23:39:24.508Z,4.30
2022-08-10T23:41:42.430Z,4.43
2022-08-10T23:44:13.408Z,4.63
2022-08-10T23:46:47.368Z,5.18
2022-08-10T23:49:14.275Z,4.50
2022-08-10T23:51:55.273Z,4.60
2022-08-10T23:54:23.114Z,5.38
2022-08-10T23:56:52.594Z,4.90
